Dieringer, Washington
Current Conditions -  °F | °C
As of 3:58 AM on Sunday 23 Nov 2014 (Local Time) from KTCM Reporting Station
Overcast Overcast  
Wind Chill: 39°   Ceiling: 6500
Heat Index: 45°   Visibility: 10mi
Dew Point: 45°   Wind: 10mph
Humidity: 99%   Direction: 170°S
Pressure: 30.16"   Gusts: NA
Location:  47.2018°N, 122.233°W
Report Text: KTCM 231158Z AUTO 17009KT 10SM FEW030 SCT048 OVC065 07/07 A3016 RMK AO2 RAE1059 SLP218 P0000 60005 70032 T00710070 10076 20062 58004 $
Loading
Personal Weather Stations






























Interactive Weather Map New forecast layout! Learn more

10-Day Weather Forecast

Advertisements
Track Severe Weather on mobile